createdAt,value
2023-05-14T00:01:36.026Z,100702.78
2023-05-14T00:04:24.726Z,100700.91
2023-05-14T00:07:13.583Z,100698.22
2023-05-14T00:10:02.276Z,100703.16
2023-05-14T00:12:52.427Z,100700.28
2023-05-14T00:15:41.368Z,100692.88
2023-05-14T00:18:31.680Z,100694.94
2023-05-14T00:21:20.296Z,100687.75
2023-05-14T00:24:11.616Z,100684.25
2023-05-14T00:27:00.208Z,100676.00
2023-05-14T00:29:48.840Z,100677.66
2023-05-14T00:32:39.692Z,100685.88
2023-05-14T00:35:29.779Z,100671.88
2023-05-14T00:38:19.538Z,100667.78
2023-05-14T00:41:08.409Z,100669.44
2023-05-14T00:43:57.335Z,100665.50
2023-05-14T00:46:46.266Z,100664.47
2023-05-14T00:49:35.478Z,100671.88
2023-05-14T00:52:25.956Z,100662.41
2023-05-14T00:55:17.586Z,100667.53
2023-05-14T00:58:10.737Z,100670.19
2023-05-14T01:00:59.408Z,100666.91
2023-05-14T01:03:49.941Z,100669.59
2023-05-14T01:06:52.977Z,100661.16
2023-05-14T01:09:47.392Z,100666.09
2023-05-14T01:12:41.740Z,100660.31
2023-05-14T01:15:32.725Z,100667.72
2023-05-14T01:18:22.306Z,100656.81
2023-05-14T01:21:26.488Z,100661.50
2023-05-14T01:24:15.374Z,100659.25
2023-05-14T01:27:12.613Z,100653.72
2023-05-14T01:30:11.198Z,100650.81
2023-05-14T01:33:03.346Z,100654.50
2023-05-14T01:35:53.647Z,100653.31
2023-05-14T01:38:45.847Z,100646.72
2023-05-14T01:41:35.080Z,100646.72
2023-05-14T01:44:24.116Z,100646.72
2023-05-14T01:47:12.811Z,100649.22
2023-05-14T01:50:01.409Z,100652.28
2023-05-14T01:52:53.329Z,100656.44
2023-05-14T01:55:43.654Z,100653.34
2023-05-14T01:58:32.472Z,100641.00
2023-05-14T02:01:21.106Z,100642.84
2023-05-14T02:04:09.771Z,100643.44
2023-05-14T02:06:58.679Z,100647.97
2023-05-14T02:09:47.301Z,100656.00
2023-05-14T02:12:37.417Z,100649.63
2023-05-14T02:15:26.242Z,100647.13
2023-05-14T02:18:15.412Z,100650.41
2023-05-14T02:21:04.008Z,100645.47
2023-05-14T02:23:52.651Z,100646.72
2023-05-14T02:26:42.002Z,100639.28
2023-05-14T02:29:32.089Z,100641.28
2023-05-14T02:32:20.751Z,100639.25
2023-05-14T02:35:10.394Z,100635.78
2023-05-14T02:37:59.615Z,100642.97
2023-05-14T02:40:49.385Z,100640.28
2023-05-14T02:43:38.042Z,100638.44
2023-05-14T02:46:28.084Z,100634.94
2023-05-14T02:49:16.697Z,100637.22
2023-05-14T02:52:05.584Z,100636.81
2023-05-14T02:54:54.181Z,100631.88
2023-05-14T02:57:42.731Z,100638.44
2023-05-14T03:00:31.433Z,100640.28
2023-05-14T03:03:22.401Z,100629.59
2023-05-14T03:06:12.049Z,100640.91
2023-05-14T03:09:00.702Z,100636.97
2023-05-14T03:11:50.937Z,100638.63
2023-05-14T03:14:39.521Z,100637.19
2023-05-14T03:17:28.349Z,100636.34
2023-05-14T03:20:18.460Z,100634.06
2023-05-14T03:23:08.312Z,100630.38
2023-05-14T03:25:56.970Z,100634.69
2023-05-14T03:28:46.279Z,100636.34
2023-05-14T03:31:34.946Z,100629.34
2023-05-14T03:34:23.803Z,100628.72
2023-05-14T03:37:14.086Z,100635.09
2023-05-14T03:40:02.720Z,100622.94
2023-05-14T03:42:51.316Z,100614.13
2023-05-14T03:45:40.481Z,100617.81
2023-05-14T03:48:29.323Z,100610.59
2023-05-14T03:51:18.007Z,100612.47
2023-05-14T03:54:08.664Z,100610.78
2023-05-14T03:56:58.703Z,100610.78
2023-05-14T03:59:47.303Z,100610.78
2023-05-14T04:02:36.259Z,100607.13
2023-05-14T04:05:25.033Z,100610.41
2023-05-14T04:08:15.522Z,100602.00
2023-05-14T04:11:05.692Z,100602.78
2023-05-14T04:13:54.262Z,100599.72
2023-05-14T04:16:45.166Z,100594.75
2023-05-14T04:19:33.852Z,100598.44
2023-05-14T04:22:22.435Z,100604.81
2023-05-14T04:25:11.934Z,100601.78
2023-05-14T04:28:02.025Z,100597.41
2023-05-14T04:30:50.644Z,100598.25
2023-05-14T04:33:39.831Z,100591.88
2023-05-14T04:36:28.608Z,100592.72
2023-05-14T04:39:17.505Z,100591.09
2023-05-14T04:42:07.834Z,100589.41
2023-05-14T04:44:57.939Z,100589.66
2023-05-14T04:47:47.457Z,100584.06
2023-05-14T04:50:36.407Z,100587.56
2023-05-14T04:53:25.410Z,100585.72
2023-05-14T04:56:14.242Z,100583.69
2023-05-14T04:59:02.822Z,100580.44
2023-05-14T05:01:52.988Z,100579.59
2023-05-14T05:04:41.877Z,100585.34
2023-05-14T05:07:30.421Z,100584.91
2023-05-14T05:10:19.108Z,100582.66
2023-05-14T05:13:07.876Z,100580.38
2023-05-14T05:15:56.766Z,100589.44
2023-05-14T05:18:46.801Z,100586.97
2023-05-14T05:21:35.587Z,100587.78
2023-05-14T05:24:24.216Z,100585.09
2023-05-14T05:27:12.877Z,100570.13
2023-05-14T05:30:03.984Z,100566.41
2023-05-14T05:32:52.682Z,100570.78
2023-05-14T05:35:44.508Z,100570.53
2023-05-14T05:38:33.151Z,100575.13
2023-05-14T05:41:22.306Z,100578.38
2023-05-14T05:44:10.935Z,100572.63
2023-05-14T05:46:59.758Z,100571.44
2023-05-14T05:49:48.461Z,100568.34
2023-05-14T05:52:38.590Z,100561.16
2023-05-14T05:55:27.284Z,100562.38
2023-05-14T05:58:17.211Z,100562.38
2023-05-14T06:01:06.551Z,100560.72
2023-05-14T06:03:55.193Z,100566.09
2023-05-14T06:06:43.749Z,100563.63
2023-05-14T06:09:33.740Z,100565.25
2023-05-14T06:12:22.734Z,100567.34
2023-05-14T06:15:12.207Z,100570.00
2023-05-14T06:18:00.925Z,100555.19
2023-05-14T06:20:49.689Z,100562.81
2023-05-14T06:23:38.618Z,100553.94
2023-05-14T06:26:28.628Z,100554.16
2023-05-14T06:29:17.233Z,100556.22
2023-05-14T06:32:07.205Z,100563.22
2023-05-14T06:34:56.149Z,100563.44
2023-05-14T06:37:45.055Z,100559.91
2023-05-14T06:40:33.620Z,100563.22
2023-05-14T06:43:24.075Z,100557.06
2023-05-14T06:46:12.686Z,100561.56
2023-05-14T06:49:01.358Z,100551.72
2023-05-14T06:51:50.086Z,100547.41
2023-05-14T06:54:39.036Z,100545.94
2023-05-14T06:57:27.637Z,100546.78
2023-05-14T07:00:19.715Z,100543.06
2023-05-14T07:03:08.448Z,100537.72
2023-05-14T07:05:57.571Z,100530.50
2023-05-14T07:08:47.372Z,100539.38
2023-05-14T07:11:36.083Z,100535.66
2023-05-14T07:14:25.096Z,100532.38
2023-05-14T07:17:15.232Z,100527.81
2023-05-14T07:20:03.905Z,100522.91
2023-05-14T07:22:53.074Z,100516.31
2023-05-14T07:25:41.818Z,100517.13
2023-05-14T07:28:30.556Z,100512.63
2023-05-14T07:31:19.227Z,100516.31
2023-05-14T07:34:10.979Z,100510.56
2023-05-14T07:36:59.697Z,100513.44
2023-05-14T07:39:48.238Z,100513.22
2023-05-14T07:42:37.616Z,100504.78
2023-05-14T07:45:26.330Z,100507.88
2023-05-14T07:48:15.118Z,100506.44
2023-05-14T07:51:05.762Z,100500.88
2023-05-14T07:53:55.450Z,100498.63
2023-05-14T07:56:44.534Z,100489.16
2023-05-14T07:59:33.165Z,100490.81
2023-05-14T08:02:22.008Z,100496.56
2023-05-14T08:05:11.123Z,100490.81
2023-05-14T08:08:01.468Z,100499.06
2023-05-14T08:10:50.215Z,100494.53
2023-05-14T08:13:38.839Z,100496.63
2023-05-14T08:16:27.660Z,100485.91
2023-05-14T08:19:17.255Z,100493.75
2023-05-14T08:22:07.241Z,100494.53
2023-05-14T08:24:59.178Z,100488.38
2023-05-14T08:27:47.771Z,100485.03
2023-05-14T08:30:36.739Z,100485.28
2023-05-14T08:33:25.343Z,100477.69
2023-05-14T08:36:14.088Z,100477.69
2023-05-14T08:39:02.682Z,100477.69
2023-05-14T08:41:53.429Z,100470.28
2023-05-14T08:44:49.982Z,100474.78
2023-05-14T08:47:39.246Z,100473.53
2023-05-14T08:50:30.326Z,100476.03
2023-05-14T08:53:19.384Z,100480.16
2023-05-14T08:56:10.154Z,100469.19
2023-05-14T08:59:00.311Z,100473.50
2023-05-14T09:01:50.604Z,100466.97
2023-05-14T09:04:39.277Z,100470.84
2023-05-14T09:07:28.428Z,100470.25
2023-05-14T09:10:17.744Z,100463.88
2023-05-14T09:13:07.701Z,100463.47
2023-05-14T09:15:58.945Z,100456.28
2023-05-14T09:18:47.760Z,100464.69
2023-05-14T09:21:36.763Z,100454.41
2023-05-14T09:24:27.489Z,100458.31
2023-05-14T09:27:21.492Z,100452.97
2023-05-14T09:30:12.832Z,100450.94
2023-05-14T09:33:03.967Z,100451.28
2023-05-14T09:35:52.702Z,100444.69
2023-05-14T09:38:41.430Z,100447.81
2023-05-14T09:41:30.021Z,100441.59
2023-05-14T09:44:19.581Z,100431.94
2023-05-14T09:47:09.479Z,100434.00
2023-05-14T09:49:59.558Z,100429.44
2023-05-14T09:52:54.239Z,100423.31
2023-05-14T09:55:43.014Z,100418.13
2023-05-14T09:58:31.679Z,100418.34
2023-05-14T10:01:21.334Z,100412.38
2023-05-14T10:04:11.710Z,100412.16
2023-05-14T10:07:02.732Z,100406.41
2023-05-14T10:09:59.529Z,100404.56
2023-05-14T10:12:54.242Z,100397.16
2023-05-14T10:15:49.532Z,100399.41
2023-05-14T10:18:42.376Z,100393.25
2023-05-14T10:21:32.544Z,100385.63
2023-05-14T10:24:23.677Z,100382.13
2023-05-14T10:27:15.203Z,100386.22
2023-05-14T10:30:12.729Z,100372.69
2023-05-14T10:33:08.955Z,100378.03
2023-05-14T10:36:04.544Z,100373.94
2023-05-14T10:38:58.009Z,100367.94
2023-05-14T10:41:49.490Z,100363.84
2023-05-14T10:44:47.539Z,100369.00
2023-05-14T10:47:37.748Z,100362.84
2023-05-14T10:50:28.364Z,100367.75
2023-05-14T10:53:16.932Z,100377.03
2023-05-14T10:56:07.839Z,100365.69
2023-05-14T10:59:02.248Z,100360.75
2023-05-14T11:01:50.842Z,100359.09
2023-05-14T11:04:42.717Z,100362.84
2023-05-14T11:07:33.389Z,100359.72
2023-05-14T11:10:23.869Z,100354.19
2023-05-14T11:13:13.516Z,100351.72
2023-05-14T11:16:21.107Z,100350.06
2023-05-14T11:19:12.944Z,100338.09
2023-05-14T11:22:02.262Z,100344.66
2023-05-14T11:24:51.542Z,100334.59
2023-05-14T11:27:40.647Z,100331.53
2023-05-14T11:30:29.473Z,100331.88
2023-05-14T11:33:20.359Z,100336.34
2023-05-14T11:36:11.152Z,100338.88
2023-05-14T11:38:59.935Z,100334.34
2023-05-14T11:41:48.928Z,100328.94
2023-05-14T11:44:40.652Z,100326.50
2023-05-14T11:47:31.679Z,100321.53
2023-05-14T11:50:23.129Z,100319.88
2023-05-14T11:53:13.099Z,100322.88
2023-05-14T11:56:04.348Z,100318.31
2023-05-14T11:58:58.668Z,100310.06
2023-05-14T12:01:49.040Z,100308.38
2023-05-14T12:04:39.433Z,100300.13
2023-05-14T12:07:31.276Z,100299.72
2023-05-14T12:10:20.105Z,100299.09
2023-05-14T12:13:08.895Z,100287.38
2023-05-14T12:15:58.921Z,100288.66
2023-05-14T12:18:47.619Z,100281.66
2023-05-14T12:21:38.026Z,100285.69
2023-05-14T12:24:28.464Z,100285.31
2023-05-14T12:27:16.981Z,100276.66
2023-05-14T12:33:00.218Z,100265.59
2023-05-14T12:35:48.885Z,100266.38
2023-05-14T12:38:41.318Z,100270.47
2023-05-14T12:41:31.947Z,100260.78
2023-05-14T12:44:22.540Z,100251.16
2023-05-14T12:47:11.273Z,100256.25
2023-05-14T12:49:59.976Z,100247.88
2023-05-14T12:52:48.718Z,100249.06
2023-05-14T12:55:37.367Z,100247.06
2023-05-14T12:58:27.465Z,100241.25
2023-05-14T13:01:16.300Z,100235.53
2023-05-14T13:04:05.508Z,100218.31
2023-05-14T13:06:54.255Z,100239.59
2023-05-14T13:09:43.160Z,100226.41
2023-05-14T13:12:32.261Z,100228.88
2023-05-14T13:15:22.783Z,100222.88
2023-05-14T13:18:11.751Z,100234.56
2023-05-14T13:21:00.453Z,100231.25
2023-05-14T13:23:49.723Z,100225.13
2023-05-14T13:26:38.620Z,100225.09
2023-05-14T13:29:29.311Z,100227.13
2023-05-14T13:32:19.636Z,100223.06
2023-05-14T13:35:09.359Z,100217.56
2023-05-14T13:37:58.012Z,100219.25
2023-05-14T13:40:46.774Z,100224.28
2023-05-14T13:43:36.898Z,100212.66
2023-05-14T13:46:25.771Z,100221.22
2023-05-14T13:49:15.779Z,100216.06
2023-05-14T13:52:04.425Z,100217.69
2023-05-14T13:54:53.082Z,100210.31
2023-05-14T13:57:43.254Z,100217.06
2023-05-14T14:00:32.154Z,100210.38
2023-05-14T14:03:20.846Z,100214.91
2023-05-14T14:06:10.936Z,100207.47
2023-05-14T14:08:59.606Z,100202.13
2023-05-14T14:11:48.409Z,100204.56
2023-05-14T14:14:37.032Z,100204.63
2023-05-14T14:17:25.964Z,100192.66
2023-05-14T14:20:15.111Z,100189.47
2023-05-14T14:23:05.130Z,100185.59
2023-05-14T14:25:53.936Z,100183.94
2023-05-14T14:28:42.976Z,100187.66
2023-05-14T14:31:31.793Z,100186.00
2023-05-14T14:34:20.498Z,100183.69
2023-05-14T14:37:09.300Z,100183.69
2023-05-14T14:40:01.829Z,100181.19
2023-05-14T14:42:51.052Z,100169.25
2023-05-14T14:45:39.793Z,100166.78
2023-05-14T14:48:31.532Z,100170.88
2023-05-14T14:51:20.237Z,100174.53
2023-05-14T14:54:09.014Z,100169.81
2023-05-14T14:57:01.795Z,100169.22
2023-05-14T14:59:50.749Z,100168.41
2023-05-14T15:02:41.946Z,100163.44
2023-05-14T15:05:30.747Z,100154.53
2023-05-14T15:08:21.813Z,100160.91
2023-05-14T15:11:10.385Z,100165.25
2023-05-14T15:14:00.466Z,100157.22
2023-05-14T15:16:51.061Z,100153.44
2023-05-14T15:19:39.889Z,100156.25
2023-05-14T15:22:28.543Z,100161.47
2023-05-14T15:25:17.234Z,100157.00
2023-05-14T15:28:07.937Z,100155.16
2023-05-14T15:30:57.934Z,100155.47
2023-05-14T15:33:46.594Z,100156.09
2023-05-14T15:36:35.223Z,100149.16
2023-05-14T15:39:23.965Z,100149.16
2023-05-14T15:42:12.771Z,100143.38
2023-05-14T15:45:01.741Z,100140.03
2023-05-14T15:47:51.944Z,100143.81
2023-05-14T15:50:43.974Z,100142.88
2023-05-14T15:53:32.737Z,100136.47
2023-05-14T15:56:21.960Z,100132.78
2023-05-14T15:59:10.742Z,100139.88
2023-05-14T16:01:59.427Z,100134.31
2023-05-14T16:04:49.912Z,100142.16
2023-05-14T16:07:38.701Z,100139.88
2023-05-14T16:10:27.387Z,100136.56
2023-05-14T16:13:16.133Z,100133.47
2023-05-14T16:16:05.203Z,100131.16
2023-05-14T16:18:53.880Z,100129.13
2023-05-14T16:21:44.012Z,100126.81
2023-05-14T16:24:35.220Z,100130.72
2023-05-14T16:27:23.934Z,100138.78
2023-05-14T16:30:13.630Z,100144.53
2023-05-14T16:33:02.386Z,100142.41
2023-05-14T16:35:51.697Z,100143.75
2023-05-14T16:38:52.626Z,100153.03
2023-05-14T16:41:50.554Z,100152.44
2023-05-14T16:44:39.196Z,100147.09
2023-05-14T16:47:27.751Z,100153.59
2023-05-14T16:50:16.493Z,100158.59
2023-05-14T16:53:05.151Z,100147.44
2023-05-14T16:55:55.204Z,100150.28
2023-05-14T16:58:43.949Z,100142.47
2023-05-14T17:01:32.635Z,100141.59
2023-05-14T17:04:21.403Z,100135.38
2023-05-14T17:07:10.199Z,100146.25
2023-05-14T17:10:00.108Z,100137.47
2023-05-14T17:12:50.311Z,100133.56
2023-05-14T17:15:40.228Z,100130.13
2023-05-14T17:18:29.199Z,100128.84
2023-05-14T17:21:18.408Z,100123.94
2023-05-14T17:24:07.931Z,100125.97
2023-05-14T17:26:56.607Z,100120.16
2023-05-14T17:29:46.684Z,100127.50
2023-05-14T17:32:35.440Z,100133.31
2023-05-14T17:35:24.589Z,100139.84
2023-05-14T17:38:13.711Z,100135.75
2023-05-14T17:41:02.429Z,100136.13
2023-05-14T17:43:52.418Z,100136.41
2023-05-14T17:46:42.600Z,100139.50
2023-05-14T17:49:31.730Z,100133.31
2023-05-14T17:52:20.698Z,100138.22
2023-05-14T17:55:10.301Z,100131.59
2023-05-14T17:57:59.058Z,100135.16
2023-05-14T18:00:47.781Z,100129.09
2023-05-14T18:03:37.940Z,100136.06
2023-05-14T18:06:26.780Z,100139.84
2023-05-14T18:09:15.456Z,100131.59
2023-05-14T18:12:04.046Z,100136.53
2023-05-14T18:14:52.747Z,100131.44
2023-05-14T18:17:41.437Z,100130.63
2023-05-14T18:20:33.334Z,100135.78
2023-05-14T18:23:22.966Z,100133.69
2023-05-14T18:26:11.724Z,100128.66
2023-05-14T18:29:00.404Z,100137.31
2023-05-14T18:31:49.212Z,100134.78
2023-05-14T18:34:37.715Z,100143.06
2023-05-14T18:37:27.746Z,100128.94
2023-05-14T18:40:18.443Z,100133.69
2023-05-14T18:43:07.859Z,100138.81
2023-05-14T18:45:56.570Z,100146.72
2023-05-14T18:48:45.216Z,100148.72
2023-05-14T18:51:33.939Z,100147.53
2023-05-14T18:54:24.348Z,100155.78
2023-05-14T18:57:13.563Z,100154.56
2023-05-14T19:00:05.278Z,100154.16
2023-05-14T19:02:54.018Z,100164.25
2023-05-14T19:05:43.136Z,100165.69
2023-05-14T19:08:39.599Z,100161.59
2023-05-14T19:11:29.659Z,100169.78
2023-05-14T19:14:18.800Z,100177.63
2023-05-14T19:17:10.403Z,100179.25
2023-05-14T19:20:08.934Z,100182.97
2023-05-14T19:23:00.028Z,100178.41
2023-05-14T19:25:49.333Z,100171.84
2023-05-14T19:28:39.759Z,100185.22
2023-05-14T19:31:29.857Z,100186.25
2023-05-14T19:34:19.387Z,100178.75
2023-05-14T19:37:19.632Z,100177.00
2023-05-14T19:40:15.948Z,100175.72
2023-05-14T19:43:18.103Z,100178.22
2023-05-14T19:46:09.890Z,100167.34
2023-05-14T19:48:58.874Z,100164.00
2023-05-14T19:51:47.498Z,100171.88
2023-05-14T19:54:36.535Z,100169.19
2023-05-14T19:57:28.010Z,100157.84
2023-05-14T20:00:17.577Z,100164.88
2023-05-14T20:03:08.040Z,100164.25
2023-05-14T20:05:58.177Z,100163.22
2023-05-14T20:08:47.048Z,100159.94
2023-05-14T20:11:35.855Z,100160.56
2023-05-14T20:14:24.520Z,100149.66
2023-05-14T20:17:13.187Z,100146.78
2023-05-14T20:20:04.644Z,100145.53
2023-05-14T20:22:53.357Z,100143.28
2023-05-14T20:25:43.012Z,100133.97
2023-05-14T20:28:31.879Z,100137.25
2023-05-14T20:31:21.429Z,100139.75
2023-05-14T20:34:10.335Z,100137.50
2023-05-14T20:37:04.779Z,100131.13
2023-05-14T20:39:53.517Z,100132.34
2023-05-14T20:42:45.721Z,100128.84
2023-05-14T20:45:34.687Z,100120.84
2023-05-14T20:48:23.287Z,100118.53
2023-05-14T20:51:12.749Z,100120.41
2023-05-14T20:54:03.226Z,100123.72
2023-05-14T20:56:52.534Z,100108.88
2023-05-14T20:59:41.111Z,100109.91
2023-05-14T21:02:29.848Z,100105.00
2023-05-14T21:05:19.142Z,100102.75
2023-05-14T21:08:08.326Z,100098.44
2023-05-14T21:10:58.299Z,100103.16
2023-05-14T21:13:47.233Z,100097.41
2023-05-14T21:16:36.059Z,100100.06
2023-05-14T21:19:25.118Z,100099.88
2023-05-14T21:22:14.554Z,100090.81
2023-05-14T21:25:03.358Z,100091.84
2023-05-14T21:27:53.489Z,100093.31
2023-05-14T21:30:42.260Z,100089.41
2023-05-14T21:33:32.962Z,100085.69
2023-05-14T21:36:22.072Z,100081.16
2023-05-14T21:39:10.727Z,100086.09
2023-05-14T21:41:59.335Z,100086.25
2023-05-14T21:44:49.435Z,100082.56
2023-05-14T21:47:39.045Z,100069.38
2023-05-14T21:50:27.830Z,100072.25
2023-05-14T21:53:16.714Z,100068.53
2023-05-14T21:56:06.045Z,100054.59
2023-05-14T21:58:56.239Z,100061.59
2023-05-14T22:02:05.578Z,100055.81
2023-05-14T22:04:55.877Z,100054.16
2023-05-14T22:07:44.921Z,100046.97
2023-05-14T22:10:33.679Z,100047.78
2023-05-14T22:13:22.300Z,100044.50
2023-05-14T22:16:13.304Z,100041.44
2023-05-14T22:19:06.010Z,100037.72
2023-05-14T22:21:56.450Z,100047.19
2023-05-14T22:24:45.087Z,100045.13
2023-05-14T22:27:34.136Z,100040.63
2023-05-14T22:30:22.765Z,100041.03
2023-05-14T22:33:11.534Z,100032.81
2023-05-14T22:36:01.570Z,100033.00
2023-05-14T22:38:50.155Z,100031.81
2023-05-14T22:41:38.773Z,100028.94
2023-05-14T22:44:29.663Z,100024.19
2023-05-14T22:47:18.646Z,100024.63
2023-05-14T22:50:11.499Z,100025.03
2023-05-14T22:53:01.567Z,100011.00
2023-05-14T22:55:50.280Z,100017.41
2023-05-14T22:58:38.865Z,100008.78
2023-05-14T23:01:27.517Z,100008.56
2023-05-14T23:04:16.329Z,100002.81
2023-05-14T23:07:05.009Z,100002.34
2023-05-14T23:09:54.956Z,99992.88
2023-05-14T23:12:43.613Z,99991.09
2023-05-14T23:15:32.490Z,99979.31
2023-05-14T23:18:24.175Z,99982.19
2023-05-14T23:21:13.641Z,99982.63
2023-05-14T23:24:02.281Z,99980.13
2023-05-14T23:26:52.354Z,99965.38
2023-05-14T23:29:40.906Z,99961.69
2023-05-14T23:32:29.915Z,99963.75
2023-05-14T23:35:18.882Z,99963.75
2023-05-14T23:38:08.571Z,99956.31
2023-05-14T23:40:57.236Z,99956.31
2023-05-14T23:43:48.788Z,99953.22
2023-05-14T23:46:37.583Z,99950.53
2023-05-14T23:49:26.263Z,99942.16
2023-05-14T23:52:14.897Z,99940.97
2023-05-14T23:55:04.279Z,99940.38
2023-05-14T23:57:52.914Z,99932.94
